createdAt,value
2019-02-27T00:01:27.333Z,22.53
2019-02-27T00:10:16.488Z,22.67
2019-02-27T00:12:45.028Z,21.40
2019-02-27T00:22:24.196Z,26.83
2019-02-27T00:24:53.149Z,25.50
2019-02-27T00:27:21.748Z,26.43
2019-02-27T00:29:50.526Z,23.67
2019-02-27T00:32:19.227Z,27.97
2019-02-27T00:34:48.023Z,30.90
2019-02-27T00:37:18.704Z,29.27
2019-02-27T00:39:47.075Z,28.83
2019-02-27T00:42:19.557Z,27.10
2019-02-27T00:44:46.245Z,26.00
2019-02-27T00:47:17.037Z,30.60
2019-02-27T00:49:45.609Z,29.90
2019-02-27T00:52:17.999Z,29.80
2019-02-27T00:54:44.801Z,24.57
2019-02-27T00:57:15.192Z,24.63
2019-02-27T00:59:44.006Z,22.90
2019-02-27T01:02:12.849Z,31.87
2019-02-27T01:04:41.354Z,30.93
2019-02-27T01:07:10.294Z,30.07
2019-02-27T01:09:39.583Z,28.90
2019-02-27T01:12:08.590Z,25.87
2019-02-27T01:14:37.644Z,29.43
2019-02-27T01:17:06.377Z,30.57
2019-02-27T01:19:38.314Z,33.43
2019-02-27T01:22:05.473Z,30.00
2019-02-27T01:24:37.657Z,30.50
2019-02-27T01:27:06.667Z,31.20
2019-02-27T01:29:35.248Z,29.37
2019-02-27T01:32:03.865Z,31.10
2019-02-27T01:34:32.674Z,32.70
2019-02-27T01:37:01.259Z,36.73
2019-02-27T01:39:30.225Z,36.80
2019-02-27T01:41:59.109Z,39.03
2019-02-27T01:44:27.763Z,36.47
2019-02-27T01:47:01.585Z,31.70
2019-02-27T01:49:27.207Z,31.33
2019-02-27T01:51:55.834Z,30.70
2019-02-27T01:54:24.555Z,30.60
2019-02-27T01:56:56.625Z,31.60
2019-02-27T01:59:25.215Z,31.30
2019-02-27T02:01:53.864Z,29.20
2019-02-27T02:04:22.947Z,32.70
2019-02-27T02:06:51.582Z,29.03
2019-02-27T02:09:36.332Z,29.77
2019-02-27T02:12:16.914Z,30.30
2019-02-27T02:14:48.863Z,28.67
2019-02-27T02:17:53.639Z,31.67
2019-02-27T02:20:31.119Z,37.50
2019-02-27T02:23:17.778Z,31.80
2019-02-27T02:25:55.234Z,29.60
2019-02-27T02:28:48.312Z,29.73
2019-02-27T02:31:25.568Z,31.00
2019-02-27T02:34:11.786Z,32.30
2019-02-27T02:36:49.158Z,29.13
2019-02-27T02:39:32.876Z,34.80
2019-02-27T02:42:07.356Z,32.40
2019-02-27T02:44:38.991Z,34.90
2019-02-27T02:47:25.275Z,31.63
2019-02-27T02:50:17.376Z,29.43
2019-02-27T02:52:53.590Z,32.83
2019-02-27T02:55:32.256Z,26.07
2019-02-27T02:58:19.261Z,36.83
2019-02-27T03:00:54.195Z,31.37
2019-02-27T03:03:28.624Z,30.53
2019-02-27T03:06:36.472Z,34.53
2019-02-27T03:09:14.373Z,27.67
2019-02-27T03:12:00.364Z,27.43
2019-02-27T03:14:54.200Z,29.60
2019-02-27T03:17:44.674Z,31.30
2019-02-27T03:20:31.284Z,30.73
2019-02-27T03:23:05.469Z,33.13
2019-02-27T03:25:51.757Z,29.07
2019-02-27T03:28:31.982Z,28.10
2019-02-27T03:31:16.427Z,27.40
2019-02-27T03:33:45.813Z,33.20
2019-02-27T03:36:23.546Z,31.53
2019-02-27T03:39:04.242Z,29.20
2019-02-27T03:42:01.247Z,33.63
2019-02-27T03:44:56.359Z,30.63
2019-02-27T03:47:43.736Z,25.97
2019-02-27T03:50:37.869Z,31.90
2019-02-27T03:53:11.104Z,27.97
2019-02-27T03:55:45.847Z,24.93
2019-02-27T03:58:36.634Z,28.93
2019-02-27T04:01:33.927Z,36.47
2019-02-27T04:04:38.879Z,29.50
2019-02-27T04:07:31.756Z,28.57
2019-02-27T04:10:01.221Z,28.43
2019-02-27T04:12:29.862Z,29.10
2019-02-27T04:14:58.444Z,28.90
2019-02-27T04:17:28.974Z,28.77
2019-02-27T04:19:58.161Z,33.23
2019-02-27T04:22:27.132Z,30.73
2019-02-27T04:24:58.761Z,26.07
2019-02-27T04:27:27.587Z,31.63
2019-02-27T04:29:56.147Z,28.83
2019-02-27T04:32:24.762Z,30.63
2019-02-27T04:34:53.690Z,29.00
2019-02-27T04:37:22.734Z,30.33
2019-02-27T04:39:51.593Z,30.00
2019-02-27T04:42:22.927Z,26.57
2019-02-27T04:44:50.672Z,30.37
2019-02-27T04:47:19.225Z,29.53
2019-02-27T04:49:47.811Z,31.47
2019-02-27T04:52:16.344Z,23.57
2019-02-27T04:54:45.048Z,31.13
2019-02-27T04:57:13.872Z,31.80
2019-02-27T04:59:44.430Z,34.30
2019-02-27T05:02:14.557Z,25.80
2019-02-27T05:04:43.620Z,28.90
2019-02-27T05:07:12.124Z,28.63
2019-02-27T05:09:40.967Z,28.57
2019-02-27T05:12:09.557Z,28.90
2019-02-27T05:14:38.394Z,30.83
2019-02-27T05:17:07.056Z,29.80
2019-02-27T05:19:37.227Z,30.17
2019-02-27T05:22:06.174Z,31.27
2019-02-27T05:24:34.705Z,35.17
2019-02-27T05:27:03.516Z,33.97
2019-02-27T05:29:32.318Z,29.90
2019-02-27T05:32:01.143Z,32.53
2019-02-27T05:34:29.980Z,28.00
2019-02-27T05:36:58.543Z,29.80
2019-02-27T05:39:27.367Z,32.37
2019-02-27T05:41:55.951Z,30.17
2019-02-27T05:44:24.475Z,32.43
2019-02-27T05:46:53.092Z,27.70
2019-02-27T05:49:21.644Z,37.97
2019-02-27T05:51:50.172Z,38.00
2019-02-27T05:56:51.411Z,30.37
2019-02-27T05:59:20.364Z,33.43
2019-02-27T06:01:49.253Z,33.20
2019-02-27T06:04:18.224Z,31.70
2019-02-27T06:06:46.794Z,34.07
2019-02-27T06:09:15.520Z,35.10
2019-02-27T06:11:44.429Z,35.80
2019-02-27T06:14:14.556Z,32.80
2019-02-27T06:16:43.410Z,37.60
2019-02-27T06:19:11.955Z,41.17
2019-02-27T06:21:40.732Z,40.20
2019-02-27T06:24:12.542Z,32.13
2019-02-27T06:26:39.572Z,29.50
2019-02-27T06:29:08.433Z,35.33
2019-02-27T06:31:38.855Z,32.50
2019-02-27T06:34:07.191Z,34.53
2019-02-27T06:36:35.793Z,32.70
2019-02-27T06:39:06.199Z,32.40
2019-02-27T06:41:34.819Z,35.60
2019-02-27T06:44:03.346Z,29.93
2019-02-27T06:46:32.285Z,37.63
2019-02-27T06:49:00.859Z,31.93
2019-02-27T06:51:29.744Z,27.70
2019-02-27T06:53:58.302Z,33.97
2019-02-27T06:56:26.864Z,37.03
2019-02-27T06:58:55.412Z,47.70
2019-02-27T07:01:24.354Z,35.47
2019-02-27T07:03:52.883Z,31.67
2019-02-27T07:06:22.267Z,33.57
2019-02-27T07:08:51.082Z,35.60
2019-02-27T07:11:20.003Z,25.97
2019-02-27T07:13:48.689Z,35.53
2019-02-27T07:16:17.232Z,31.00
2019-02-27T07:18:45.781Z,34.13
2019-02-27T07:21:14.636Z,30.13
2019-02-27T07:23:43.441Z,30.87
2019-02-27T07:26:13.223Z,31.77
2019-02-27T07:28:43.512Z,28.13
2019-02-27T07:31:17.578Z,31.57
2019-02-27T07:33:42.912Z,37.63
2019-02-27T07:36:11.400Z,32.30
2019-02-27T07:38:39.903Z,30.10
2019-02-27T07:41:08.591Z,31.73
2019-02-27T07:43:37.174Z,28.70
2019-02-27T07:46:05.683Z,35.80
2019-02-27T07:48:42.026Z,29.97
2019-02-27T07:51:10.610Z,29.90
2019-02-27T07:53:39.146Z,29.30
2019-02-27T07:56:07.720Z,32.63
2019-02-27T07:58:36.263Z,25.50
2019-02-27T08:01:05.060Z,29.43
2019-02-27T08:03:34.091Z,24.90
2019-02-27T08:06:03.129Z,31.60
2019-02-27T08:08:32.339Z,25.63
2019-02-27T08:11:00.985Z,29.60
2019-02-27T08:13:30.251Z,29.90
2019-02-27T08:15:58.850Z,26.37
2019-02-27T08:18:30.490Z,28.60
2019-02-27T08:20:57.522Z,24.50
2019-02-27T08:23:26.092Z,26.70
2019-02-27T08:25:54.654Z,29.40
2019-02-27T08:28:23.141Z,24.80
2019-02-27T08:30:51.597Z,23.10
2019-02-27T08:33:20.400Z,27.03
2019-02-27T08:35:52.230Z,25.73
2019-02-27T08:38:20.713Z,22.33
2019-02-27T08:40:49.168Z,22.27
2019-02-27T08:43:23.345Z,31.93
2019-02-27T08:45:51.790Z,27.30
2019-02-27T08:48:20.313Z,19.37
2019-02-27T08:50:49.151Z,23.30
2019-02-27T08:53:17.959Z,23.13
2019-02-27T08:55:46.493Z,26.13
2019-02-27T08:58:15.039Z,21.13
2019-02-27T09:00:47.152Z,22.40
2019-02-27T09:03:20.359Z,21.87
2019-02-27T09:05:44.442Z,23.03
2019-02-27T09:08:12.911Z,19.23
2019-02-27T09:10:41.433Z,18.40
2019-02-27T09:13:10.173Z,22.87
2019-02-27T09:15:38.653Z,20.30
2019-02-27T09:18:07.418Z,19.27
2019-02-27T09:20:35.900Z,21.17
2019-02-27T09:23:04.410Z,19.87
2019-02-27T09:25:33.216Z,18.87
2019-02-27T09:28:03.499Z,20.93
2019-02-27T09:30:32.109Z,20.90
2019-02-27T09:33:00.714Z,22.33
2019-02-27T09:35:32.225Z,20.10
2019-02-27T09:37:59.653Z,23.43
2019-02-27T09:40:29.872Z,22.17
2019-02-27T09:42:58.696Z,21.33
2019-02-27T09:45:31.952Z,21.57
2019-02-27T09:48:00.776Z,21.70
2019-02-27T09:50:47.625Z,20.20
2019-02-27T09:53:13.984Z,19.40
2019-02-27T09:55:45.557Z,20.87
2019-02-27T09:58:14.337Z,20.53
2019-02-27T10:00:48.768Z,25.80
2019-02-27T10:03:20.494Z,18.73
2019-02-27T10:05:47.812Z,22.67
2019-02-27T10:08:16.628Z,17.33
2019-02-27T10:10:46.062Z,22.40
2019-02-27T10:13:14.869Z,17.83
2019-02-27T10:15:43.753Z,18.10
2019-02-27T10:18:12.660Z,17.50
2019-02-27T10:20:41.211Z,19.87
2019-02-27T10:23:09.882Z,25.20
2019-02-27T10:25:43.253Z,20.57
2019-02-27T10:28:10.643Z,18.07
2019-02-27T10:30:39.268Z,17.27
2019-02-27T10:33:07.753Z,19.80
2019-02-27T10:35:40.017Z,21.43
2019-02-27T10:38:08.594Z,18.70
2019-02-27T10:40:37.182Z,20.40
2019-02-27T10:43:05.700Z,21.93
2019-02-27T10:45:34.270Z,22.53
2019-02-27T10:48:02.758Z,21.43
2019-02-27T10:50:31.755Z,21.30
2019-02-27T10:53:00.360Z,18.50
2019-02-27T10:55:29.057Z,17.40
2019-02-27T10:57:57.671Z,17.27
2019-02-27T11:00:34.081Z,15.30
2019-02-27T11:03:03.069Z,15.73
2019-02-27T11:05:34.320Z,13.10
2019-02-27T11:08:04.672Z,16.37
2019-02-27T11:10:33.280Z,13.43
2019-02-27T11:13:05.491Z,19.03
2019-02-27T11:15:32.046Z,13.67
2019-02-27T11:18:04.213Z,11.53
2019-02-27T11:20:31.349Z,13.33
2019-02-27T11:23:00.206Z,16.10
2019-02-27T11:25:34.440Z,16.40
2019-02-27T11:28:03.015Z,15.20
2019-02-27T11:30:39.390Z,13.10
2019-02-27T11:33:07.985Z,14.13
2019-02-27T11:35:39.740Z,12.77
2019-02-27T11:38:08.565Z,17.20
2019-02-27T11:40:41.794Z,12.73
2019-02-27T11:43:07.708Z,12.67
2019-02-27T11:45:36.187Z,11.73
2019-02-27T11:48:04.687Z,13.27
2019-02-27T11:50:33.388Z,16.97
2019-02-27T11:53:03.038Z,13.80
2019-02-27T11:55:31.916Z,11.73
2019-02-27T11:58:04.584Z,8.63
2019-02-27T12:00:30.587Z,8.20
2019-02-27T12:02:59.549Z,9.30
2019-02-27T12:05:33.859Z,10.50
2019-02-27T12:07:58.763Z,8.67
2019-02-27T12:10:29.483Z,11.20
2019-02-27T12:13:00.922Z,9.17
2019-02-27T12:15:28.494Z,8.07
2019-02-27T12:17:59.989Z,10.30
2019-02-27T12:20:27.504Z,9.00
2019-02-27T12:22:56.003Z,23.03
2019-02-27T12:25:29.052Z,10.17
2019-02-27T12:27:56.979Z,12.80
2019-02-27T12:30:30.665Z,11.40
2019-02-27T12:32:59.739Z,10.50
2019-02-27T12:35:31.104Z,8.23
2019-02-27T12:38:00.282Z,9.03
2019-02-27T12:40:29.098Z,9.60
2019-02-27T12:42:57.555Z,10.87
2019-02-27T12:45:30.187Z,11.90
2019-02-27T12:47:59.398Z,12.57
2019-02-27T12:50:31.109Z,11.00
2019-02-27T12:52:59.882Z,10.53
2019-02-27T12:55:29.034Z,9.17
2019-02-27T12:57:57.806Z,12.53
2019-02-27T13:00:32.120Z,15.47
2019-02-27T13:03:01.027Z,10.80
2019-02-27T13:05:30.099Z,13.10
2019-02-27T13:07:58.837Z,7.13
2019-02-27T13:10:32.994Z,9.20
2019-02-27T13:12:58.927Z,7.40
2019-02-27T13:15:29.062Z,5.87
2019-02-27T13:17:58.160Z,12.33
2019-02-27T13:20:29.595Z,10.83
2019-02-27T13:22:58.212Z,12.87
2019-02-27T13:25:26.802Z,8.17
2019-02-27T13:27:55.694Z,8.17
2019-02-27T13:30:25.414Z,9.50
2019-02-27T13:32:54.523Z,9.93
2019-02-27T13:35:24.027Z,9.70
2019-02-27T13:37:52.616Z,8.03
2019-02-27T13:40:26.922Z,5.50
2019-02-27T13:42:55.794Z,7.87
2019-02-27T13:45:26.590Z,9.43
2019-02-27T13:47:55.160Z,8.43
2019-02-27T13:50:26.740Z,5.33
2019-02-27T13:52:54.450Z,7.67
2019-02-27T13:55:23.803Z,7.67
2019-02-27T13:57:52.656Z,7.77
2019-02-27T14:00:25.761Z,6.70
2019-02-27T14:02:54.267Z,4.83
2019-02-27T14:05:22.744Z,5.40
2019-02-27T14:07:51.362Z,6.50
2019-02-27T14:10:21.317Z,8.83
2019-02-27T14:12:49.891Z,6.47
2019-02-27T14:15:20.940Z,5.80
2019-02-27T14:17:50.093Z,7.50
2019-02-27T14:20:20.423Z,6.63
2019-02-27T14:22:49.057Z,7.93
2019-02-27T14:25:23.042Z,9.87
2019-02-27T14:27:51.527Z,6.10
2019-02-27T14:30:25.235Z,6.23
2019-02-27T14:32:53.896Z,5.73
2019-02-27T14:35:22.334Z,5.90
2019-02-27T14:37:51.195Z,7.93
2019-02-27T14:40:21.415Z,6.30
2019-02-27T14:42:53.946Z,6.40
2019-02-27T14:45:26.404Z,7.60
2019-02-27T14:47:54.945Z,7.70
2019-02-27T14:50:24.288Z,6.23
2019-02-27T14:52:53.497Z,14.70
2019-02-27T14:55:22.874Z,4.80
2019-02-27T14:57:51.622Z,6.20
2019-02-27T15:00:28.015Z,7.00
2019-02-27T15:02:56.963Z,5.80
2019-02-27T15:05:25.785Z,4.73
2019-02-27T15:07:54.870Z,6.67
2019-02-27T15:10:24.813Z,46.03
2019-02-27T15:12:55.129Z,4.50
2019-02-27T15:15:28.458Z,8.00
2019-02-27T15:17:57.290Z,10.20
2019-02-27T15:20:29.886Z,8.63
2019-02-27T15:22:58.384Z,8.33
2019-02-27T15:25:27.835Z,5.43
2019-02-27T15:27:58.673Z,4.80
2019-02-27T15:30:29.413Z,8.83
2019-02-27T15:33:03.850Z,4.50
2019-02-27T15:35:29.700Z,5.57
2019-02-27T15:37:58.339Z,6.40
2019-02-27T15:40:30.119Z,5.57
2019-02-27T15:42:59.293Z,14.60
2019-02-27T15:45:28.898Z,9.17
2019-02-27T15:47:57.894Z,6.43
2019-02-27T15:50:30.802Z,7.50
2019-02-27T15:52:59.392Z,11.80
2019-02-27T15:55:33.035Z,8.80
2019-02-27T15:57:58.684Z,10.33
2019-02-27T16:00:28.310Z,6.13
2019-02-27T16:02:57.524Z,9.57
2019-02-27T16:05:30.126Z,6.63
2019-02-27T16:07:56.840Z,7.40
2019-02-27T16:10:29.113Z,8.53
2019-02-27T16:13:00.925Z,7.33
2019-02-27T16:15:28.324Z,6.93
2019-02-27T16:17:57.031Z,13.20
2019-02-27T16:20:26.822Z,14.23
2019-02-27T16:22:58.251Z,11.73
2019-02-27T16:25:28.325Z,8.57
2019-02-27T16:27:57.161Z,7.60
2019-02-27T16:30:32.378Z,7.17
2019-02-27T16:33:00.458Z,10.37
2019-02-27T16:35:29.676Z,9.40
2019-02-27T16:37:58.566Z,10.73
2019-02-27T16:40:30.159Z,9.77
2019-02-27T16:42:58.676Z,12.30
2019-02-27T16:45:36.996Z,9.47
2019-02-27T16:48:06.004Z,11.83
2019-02-27T16:50:34.826Z,21.57
2019-02-27T16:53:03.337Z,10.83
2019-02-27T16:55:35.670Z,11.87
2019-02-27T16:58:02.549Z,10.27
2019-02-27T17:00:36.812Z,9.63
2019-02-27T17:03:05.689Z,10.30
2019-02-27T17:05:34.450Z,13.28
2019-02-27T17:08:03.786Z,16.00
2019-02-27T17:10:35.846Z,15.73
2019-02-27T17:13:04.624Z,12.33
2019-02-27T17:15:35.947Z,14.10
2019-02-27T17:18:03.285Z,14.27
2019-02-27T17:20:31.884Z,15.93
2019-02-27T17:23:00.357Z,15.60
2019-02-27T17:25:30.121Z,13.23
2019-02-27T17:27:58.760Z,19.03
2019-02-27T17:30:38.139Z,16.10
2019-02-27T17:33:06.831Z,15.10
2019-02-27T17:35:35.429Z,14.83
2019-02-27T17:38:03.940Z,18.60
2019-02-27T17:40:36.298Z,19.10
2019-02-27T17:43:03.083Z,17.13
2019-02-27T17:45:31.872Z,17.87
2019-02-27T17:48:00.339Z,17.53
2019-02-27T17:50:31.848Z,16.57
2019-02-27T17:52:59.076Z,20.17
2019-02-27T17:55:27.535Z,16.57
2019-02-27T17:57:58.357Z,15.57
2019-02-27T18:00:32.446Z,21.80
2019-02-27T18:03:01.027Z,19.77
2019-02-27T18:05:29.484Z,21.53
2019-02-27T18:07:57.922Z,20.30
2019-02-27T18:10:26.396Z,16.97
2019-02-27T18:12:54.827Z,19.03
2019-02-27T18:15:24.330Z,18.30
2019-02-27T18:17:53.227Z,21.67
2019-02-27T18:20:24.924Z,26.23
2019-02-27T18:22:52.332Z,21.17
2019-02-27T18:25:20.793Z,22.87
2019-02-27T18:27:49.475Z,20.50
2019-02-27T18:30:19.949Z,24.83
2019-02-27T18:32:49.107Z,19.40
2019-02-27T18:35:18.868Z,17.37
2019-02-27T18:37:53.288Z,25.17
2019-02-27T18:40:18.868Z,20.23
2019-02-27T18:42:47.334Z,22.10
2019-02-27T18:45:20.763Z,23.67
2019-02-27T18:47:49.463Z,17.00
2019-02-27T18:50:18.215Z,17.83
2019-02-27T18:52:46.661Z,22.97
2019-02-27T18:55:15.657Z,19.30
2019-02-27T18:57:47.285Z,20.80
2019-02-27T19:00:18.315Z,21.33
2019-02-27T19:02:47.387Z,22.63
2019-02-27T19:05:16.280Z,15.63
2019-02-27T19:07:44.809Z,19.20
2019-02-27T19:10:15.279Z,22.17
2019-02-27T19:12:44.187Z,15.53
2019-02-27T19:15:22.094Z,15.37
2019-02-27T19:17:51.531Z,14.20
2019-02-27T19:20:38.295Z,18.83
2019-02-27T19:23:06.974Z,19.23
2019-02-27T19:25:35.577Z,20.10
2019-02-27T19:28:04.501Z,20.27
2019-02-27T19:30:34.695Z,16.40
2019-02-27T19:33:03.667Z,18.57
2019-02-27T19:35:32.204Z,16.30
2019-02-27T19:38:00.734Z,14.80
2019-02-27T19:40:30.507Z,21.60
2019-02-27T19:43:04.281Z,20.30
2019-02-27T19:45:35.769Z,18.97
2019-02-27T19:48:03.364Z,14.87
2019-02-27T19:50:32.202Z,17.83
2019-02-27T19:53:05.220Z,19.57
2019-02-27T19:55:31.215Z,22.40
2019-02-27T19:57:59.659Z,19.67
2019-02-27T20:00:33.923Z,18.93
2019-02-27T20:03:01.520Z,21.67
2019-02-27T20:05:30.461Z,23.53
2019-02-27T20:07:59.030Z,25.20
2019-02-27T20:10:30.163Z,20.67
2019-02-27T20:12:57.784Z,16.23
2019-02-27T20:15:26.873Z,20.27
2019-02-27T20:17:55.335Z,20.80
2019-02-27T20:20:25.408Z,29.43
2019-02-27T20:22:54.808Z,20.57
2019-02-27T20:25:28.571Z,23.43
2019-02-27T20:27:58.705Z,23.17
2019-02-27T20:30:27.497Z,24.27
2019-02-27T20:32:56.457Z,19.97
2019-02-27T20:35:24.991Z,25.37
2019-02-27T20:37:53.569Z,22.30
2019-02-27T20:40:22.130Z,26.60
2019-02-27T20:42:54.686Z,21.80
2019-02-27T20:45:22.955Z,26.40
2019-02-27T20:47:57.849Z,20.20
2019-02-27T20:50:35.342Z,25.33
2019-02-27T20:53:04.332Z,24.13
2019-02-27T20:55:33.127Z,24.30
2019-02-27T20:58:01.603Z,24.60
2019-02-27T21:00:30.292Z,23.00
2019-02-27T21:03:00.691Z,21.70
2019-02-27T21:05:29.239Z,25.17
2019-02-27T21:08:02.179Z,21.13
2019-02-27T21:10:30.518Z,17.80
2019-02-27T21:12:59.003Z,22.63
2019-02-27T21:15:29.359Z,24.43
2019-02-27T21:17:59.014Z,21.30
2019-02-27T21:20:27.787Z,40.60
2019-02-27T21:22:56.252Z,22.83
2019-02-27T21:25:25.048Z,26.13
2019-02-27T21:27:53.828Z,25.13
2019-02-27T21:30:25.919Z,23.97
2019-02-27T21:32:54.622Z,21.33
2019-02-27T21:35:23.067Z,24.23
2019-02-27T21:37:51.779Z,30.53
2019-02-27T21:40:20.570Z,24.57
2019-02-27T21:42:50.778Z,24.60
2019-02-27T21:45:20.569Z,22.80
2019-02-27T21:47:51.902Z,24.30
2019-02-27T21:50:25.926Z,26.43
2019-02-27T21:52:55.656Z,26.43
2019-02-27T21:55:24.730Z,24.90
2019-02-27T21:57:53.188Z,24.80
2019-02-27T22:00:24.309Z,33.73
2019-02-27T22:02:54.773Z,26.97
2019-02-27T22:05:23.283Z,26.37
2019-02-27T22:07:51.819Z,28.77
2019-02-27T22:10:20.629Z,30.03
2019-02-27T22:12:49.561Z,31.60
2019-02-27T22:15:30.919Z,34.83
2019-02-27T22:17:59.611Z,33.30
2019-02-27T22:20:28.308Z,26.50
2019-02-27T22:22:56.760Z,38.33
2019-02-27T22:25:30.225Z,26.53
2019-02-27T22:27:55.523Z,35.50
2019-02-27T22:30:24.498Z,27.87
2019-02-27T22:32:52.955Z,32.80
2019-02-27T22:35:21.741Z,25.70
2019-02-27T22:37:52.283Z,29.20
2019-02-27T22:40:21.747Z,31.07
2019-02-27T22:42:50.181Z,28.83
2019-02-27T22:45:19.815Z,33.27
2019-02-27T22:47:49.107Z,29.53
2019-02-27T22:50:18.675Z,28.20
2019-02-27T22:52:47.119Z,29.63
2019-02-27T22:55:15.622Z,34.80
2019-02-27T22:57:45.050Z,40.83
2019-02-27T23:00:50.915Z,26.83
2019-02-27T23:03:23.802Z,28.13
2019-02-27T23:05:51.336Z,23.40
2019-02-27T23:08:22.986Z,24.63
2019-02-27T23:10:49.998Z,28.63
2019-02-27T23:13:18.740Z,28.20
2019-02-27T23:15:47.343Z,29.33
2019-02-27T23:18:16.046Z,29.00
2019-02-27T23:20:44.730Z,24.13
2019-02-27T23:23:13.184Z,24.00
2019-02-27T23:25:41.679Z,26.27
2019-02-27T23:28:10.446Z,26.03
2019-02-27T23:30:38.870Z,25.17
2019-02-27T23:33:07.620Z,25.97
2019-02-27T23:35:36.068Z,27.20
2019-02-27T23:38:04.524Z,27.33
2019-02-27T23:40:32.955Z,27.50
2019-02-27T23:43:03.411Z,25.80
2019-02-27T23:45:31.560Z,23.77
2019-02-27T23:48:02.205Z,25.90
2019-02-27T23:50:30.478Z,31.40
2019-02-27T23:52:58.991Z,27.93
2019-02-27T23:55:27.429Z,32.80
2019-02-27T23:57:57.932Z,32.93
